sensor_id;sensor_type;location;lat;lon;timestamp;P1;durP1;ratioP1;P2;durP2;ratioP2
65469;SDS011;52067;50.710;14.492;2024-01-15T00:02:06;15.05;;;5.50;;
65469;SDS011;52067;50.710;14.492;2024-01-15T00:04:36;14.02;;;5.63;;
65469;SDS011;52067;50.710;14.492;2024-01-15T00:07:08;13.32;;;5.75;;
65469;SDS011;52067;50.710;14.492;2024-01-15T00:09:34;14.38;;;6.63;;
65469;SDS011;52067;50.710;14.492;2024-01-15T00:12:00;11.93;;;4.95;;
65469;SDS011;52067;50.710;14.492;2024-01-15T00:14:26;12.50;;;5.55;;
65469;SDS011;52067;50.710;14.492;2024-01-15T00:16:52;11.68;;;5.90;;
65469;SDS011;52067;50.710;14.492;2024-01-15T00:19:19;13.63;;;5.85;;
65469;SDS011;52067;50.710;14.492;2024-01-15T00:21:46;11.88;;;5.50;;
65469;SDS011;52067;50.710;14.492;2024-01-15T00:24:12;13.73;;;5.90;;
65469;SDS011;52067;50.710;14.492;2024-01-15T00:26:37;16.17;;;6.15;;
65469;SDS011;52067;50.710;14.492;2024-01-15T00:29:03;15.52;;;6.28;;
65469;SDS011;52067;50.710;14.492;2024-01-15T00:31:29;13.45;;;5.78;;
65469;SDS011;52067;50.710;14.492;2024-01-15T00:33:57;11.60;;;4.85;;
65469;SDS011;52067;50.710;14.492;2024-01-15T00:36:22;13.93;;;5.78;;
65469;SDS011;52067;50.710;14.492;2024-01-15T00:38:48;10.73;;;5.05;;
65469;SDS011;52067;50.710;14.492;2024-01-15T00:41:13;11.35;;;6.05;;
65469;SDS011;52067;50.710;14.492;2024-01-15T00:43:39;14.30;;;6.60;;
65469;SDS011;52067;50.710;14.492;2024-01-15T00:46:05;15.63;;;6.63;;
65469;SDS011;52067;50.710;14.492;2024-01-15T00:48:30;13.00;;;5.25;;
65469;SDS011;52067;50.710;14.492;2024-01-15T00:50:56;12.00;;;6.18;;
65469;SDS011;52067;50.710;14.492;2024-01-15T00:53:22;15.20;;;6.68;;
65469;SDS011;52067;50.710;14.492;2024-01-15T00:55:50;15.55;;;5.90;;
65469;SDS011;52067;50.710;14.492;2024-01-15T00:58:16;11.02;;;5.03;;
65469;SDS011;52067;50.710;14.492;2024-01-15T01:00:44;15.18;;;5.78;;
65469;SDS011;52067;50.710;14.492;2024-01-15T01:03:09;13.50;;;5.38;;
65469;SDS011;52067;50.710;14.492;2024-01-15T01:05:34;9.93;;;4.53;;
65469;SDS011;52067;50.710;14.492;2024-01-15T01:08:00;14.75;;;5.43;;
65469;SDS011;52067;50.710;14.492;2024-01-15T01:10:28;11.10;;;5.57;;
65469;SDS011;52067;50.710;14.492;2024-01-15T01:12:53;14.13;;;5.88;;
65469;SDS011;52067;50.710;14.492;2024-01-15T01:15:19;13.35;;;5.53;;
65469;SDS011;52067;50.710;14.492;2024-01-15T01:17:45;13.75;;;5.60;;
65469;SDS011;52067;50.710;14.492;2024-01-15T01:20:11;12.15;;;4.82;;
65469;SDS011;52067;50.710;14.492;2024-01-15T01:22:36;12.02;;;5.50;;
65469;SDS011;52067;50.710;14.492;2024-01-15T01:25:02;16.23;;;5.80;;
65469;SDS011;52067;50.710;14.492;2024-01-15T01:27:28;11.93;;;4.75;;
65469;SDS011;52067;50.710;14.492;2024-01-15T01:29:53;12.40;;;4.63;;
65469;SDS011;52067;50.710;14.492;2024-01-15T01:32:18;12.93;;;5.30;;
65469;SDS011;52067;50.710;14.492;2024-01-15T01:34:44;11.15;;;4.90;;
65469;SDS011;52067;50.710;14.492;2024-01-15T01:37:10;11.70;;;5.03;;
65469;SDS011;52067;50.710;14.492;2024-01-15T01:39:38;14.70;;;5.55;;
65469;SDS011;52067;50.710;14.492;2024-01-15T01:42:04;14.05;;;5.97;;
65469;SDS011;52067;50.710;14.492;2024-01-15T01:44:29;16.13;;;5.82;;
65469;SDS011;52067;50.710;14.492;2024-01-15T01:46:55;15.50;;;6.60;;
65469;SDS011;52067;50.710;14.492;2024-01-15T01:49:22;16.27;;;6.65;;
65469;SDS011;52067;50.710;14.492;2024-01-15T01:51:49;15.27;;;4.90;;
65469;SDS011;52067;50.710;14.492;2024-01-15T01:54:15;17.35;;;7.15;;
65469;SDS011;52067;50.710;14.492;2024-01-15T01:56:41;16.08;;;7.30;;
65469;SDS011;52067;50.710;14.492;2024-01-15T01:59:07;13.65;;;6.57;;
65469;SDS011;52067;50.710;14.492;2024-01-15T02:01:34;14.63;;;6.78;;
65469;SDS011;52067;50.710;14.492;2024-01-15T02:04:01;17.35;;;7.05;;
65469;SDS011;52067;50.710;14.492;2024-01-15T02:06:26;16.60;;;6.72;;
65469;SDS011;52067;50.710;14.492;2024-01-15T02:08:52;12.27;;;5.47;;
65469;SDS011;52067;50.710;14.492;2024-01-15T02:11:18;18.80;;;6.75;;
65469;SDS011;52067;50.710;14.492;2024-01-15T02:13:43;13.63;;;4.85;;
65469;SDS011;52067;50.710;14.492;2024-01-15T02:16:09;14.82;;;6.60;;
65469;SDS011;52067;50.710;14.492;2024-01-15T02:18:44;14.90;;;6.55;;
65469;SDS011;52067;50.710;14.492;2024-01-15T02:26:01;16.35;;;5.38;;
65469;SDS011;52067;50.710;14.492;2024-01-15T02:28:27;15.63;;;6.35;;
65469;SDS011;52067;50.710;14.492;2024-01-15T02:30:52;14.93;;;6.75;;
65469;SDS011;52067;50.710;14.492;2024-01-15T02:33:18;15.38;;;6.05;;
65469;SDS011;52067;50.710;14.492;2024-01-15T02:35:43;15.25;;;6.50;;
65469;SDS011;52067;50.710;14.492;2024-01-15T02:38:09;15.88;;;6.78;;
65469;SDS011;52067;50.710;14.492;2024-01-15T02:40:34;15.60;;;6.50;;
65469;SDS011;52067;50.710;14.492;2024-01-15T02:43:00;13.95;;;6.22;;
65469;SDS011;52067;50.710;14.492;2024-01-15T02:45:25;13.95;;;6.20;;
65469;SDS011;52067;50.710;14.492;2024-01-15T02:47:51;13.50;;;6.40;;
65469;SDS011;52067;50.710;14.492;2024-01-15T02:50:17;11.73;;;6.22;;
65469;SDS011;52067;50.710;14.492;2024-01-15T02:52:42;17.17;;;6.75;;
65469;SDS011;52067;50.710;14.492;2024-01-15T02:55:08;16.08;;;6.63;;
65469;SDS011;52067;50.710;14.492;2024-01-15T02:57:34;17.00;;;7.10;;
65469;SDS011;52067;50.710;14.492;2024-01-15T02:59:59;18.10;;;7.18;;
65469;SDS011;52067;50.710;14.492;2024-01-15T03:02:25;14.65;;;5.85;;
65469;SDS011;52067;50.710;14.492;2024-01-15T03:04:50;16.08;;;6.35;;
65469;SDS011;52067;50.710;14.492;2024-01-15T03:07:16;17.90;;;7.88;;
65469;SDS011;52067;50.710;14.492;2024-01-15T03:09:41;14.27;;;5.20;;
65469;SDS011;52067;50.710;14.492;2024-01-15T03:12:07;13.88;;;5.60;;
65469;SDS011;52067;50.710;14.492;2024-01-15T03:14:32;18.00;;;7.18;;
65469;SDS011;52067;50.710;14.492;2024-01-15T03:16:58;15.57;;;6.10;;
65469;SDS011;52067;50.710;14.492;2024-01-15T03:19:23;15.13;;;6.13;;
65469;SDS011;52067;50.710;14.492;2024-01-15T03:21:49;13.52;;;6.00;;
65469;SDS011;52067;50.710;14.492;2024-01-15T03:24:14;15.32;;;6.15;;
65469;SDS011;52067;50.710;14.492;2024-01-15T03:26:39;17.25;;;6.20;;
65469;SDS011;52067;50.710;14.492;2024-01-15T03:29:05;15.18;;;5.55;;
65469;SDS011;52067;50.710;14.492;2024-01-15T03:31:31;13.73;;;5.25;;
65469;SDS011;52067;50.710;14.492;2024-01-15T03:33:56;12.80;;;5.40;;
65469;SDS011;52067;50.710;14.492;2024-01-15T03:36:22;11.38;;;5.00;;
65469;SDS011;52067;50.710;14.492;2024-01-15T03:38:47;17.95;;;6.30;;
65469;SDS011;52067;50.710;14.492;2024-01-15T03:41:13;12.88;;;5.45;;
65469;SDS011;52067;50.710;14.492;2024-01-15T03:43:38;14.88;;;6.20;;
65469;SDS011;52067;50.710;14.492;2024-01-15T03:46:04;13.05;;;5.65;;
65469;SDS011;52067;50.710;14.492;2024-01-15T03:48:30;12.88;;;5.88;;
65469;SDS011;52067;50.710;14.492;2024-01-15T03:50:56;11.30;;;5.10;;
65469;SDS011;52067;50.710;14.492;2024-01-15T03:53:21;12.15;;;5.53;;
65469;SDS011;52067;50.710;14.492;2024-01-15T03:55:46;10.50;;;4.22;;
65469;SDS011;52067;50.710;14.492;2024-01-15T03:58:12;13.40;;;5.03;;
65469;SDS011;52067;50.710;14.492;2024-01-15T04:00:39;9.45;;;4.22;;
65469;SDS011;52067;50.710;14.492;2024-01-15T04:03:05;11.50;;;4.43;;
65469;SDS011;52067;50.710;14.492;2024-01-15T04:05:31;8.90;;;4.55;;
65469;SDS011;52067;50.710;14.492;2024-01-15T04:07:56;13.98;;;4.63;;
65469;SDS011;52067;50.710;14.492;2024-01-15T04:10:21;12.82;;;5.15;;
65469;SDS011;52067;50.710;14.492;2024-01-15T04:12:47;10.75;;;4.38;;
65469;SDS011;52067;50.710;14.492;2024-01-15T04:15:12;7.68;;;4.10;;
65469;SDS011;52067;50.710;14.492;2024-01-15T04:17:38;8.63;;;3.45;;
65469;SDS011;52067;50.710;14.492;2024-01-15T04:20:04;7.60;;;2.97;;
65469;SDS011;52067;50.710;14.492;2024-01-15T04:22:30;7.72;;;3.72;;
65469;SDS011;52067;50.710;14.492;2024-01-15T04:24:55;10.32;;;4.28;;
65469;SDS011;52067;50.710;14.492;2024-01-15T04:27:21;11.02;;;3.90;;
65469;SDS011;52067;50.710;14.492;2024-01-15T04:29:46;7.55;;;3.80;;
65469;SDS011;52067;50.710;14.492;2024-01-15T04:32:12;10.80;;;3.88;;
65469;SDS011;52067;50.710;14.492;2024-01-15T04:34:37;10.57;;;4.32;;
65469;SDS011;52067;50.710;14.492;2024-01-15T04:37:03;7.93;;;3.83;;
65469;SDS011;52067;50.710;14.492;2024-01-15T04:39:28;6.82;;;3.90;;
65469;SDS011;52067;50.710;14.492;2024-01-15T04:41:54;8.77;;;4.28;;
65469;SDS011;52067;50.710;14.492;2024-01-15T04:44:19;8.65;;;3.55;;
65469;SDS011;52067;50.710;14.492;2024-01-15T04:46:45;11.20;;;4.75;;
65469;SDS011;52067;50.710;14.492;2024-01-15T04:49:11;10.10;;;4.20;;
65469;SDS011;52067;50.710;14.492;2024-01-15T04:51:36;8.60;;;4.00;;
65469;SDS011;52067;50.710;14.492;2024-01-15T04:54:02;8.82;;;3.78;;
65469;SDS011;52067;50.710;14.492;2024-01-15T04:56:27;7.78;;;3.78;;
65469;SDS011;52067;50.710;14.492;2024-01-15T04:58:53;8.00;;;3.92;;
65469;SDS011;52067;50.710;14.492;2024-01-15T05:01:18;7.95;;;3.83;;
65469;SDS011;52067;50.710;14.492;2024-01-15T05:03:44;7.68;;;3.72;;
65469;SDS011;52067;50.710;14.492;2024-01-15T05:06:09;10.82;;;4.10;;
65469;SDS011;52067;50.710;14.492;2024-01-15T05:08:35;7.65;;;3.72;;
65469;SDS011;52067;50.710;14.492;2024-01-15T05:11:00;9.80;;;3.70;;
65469;SDS011;52067;50.710;14.492;2024-01-15T05:13:25;9.65;;;4.07;;
65469;SDS011;52067;50.710;14.492;2024-01-15T05:15:51;6.03;;;3.15;;
65469;SDS011;52067;50.710;14.492;2024-01-15T05:18:16;11.25;;;4.38;;
65469;SDS011;52067;50.710;14.492;2024-01-15T05:20:42;9.43;;;4.05;;
65469;SDS011;52067;50.710;14.492;2024-01-15T05:23:07;5.30;;;2.90;;
65469;SDS011;52067;50.710;14.492;2024-01-15T05:25:33;8.30;;;3.55;;
65469;SDS011;52067;50.710;14.492;2024-01-15T05:27:58;7.10;;;3.13;;
65469;SDS011;52067;50.710;14.492;2024-01-15T05:30:23;9.85;;;3.70;;
65469;SDS011;52067;50.710;14.492;2024-01-15T05:32:49;9.55;;;3.55;;
65469;SDS011;52067;50.710;14.492;2024-01-15T05:35:14;14.10;;;5.35;;
65469;SDS011;52067;50.710;14.492;2024-01-15T05:37:43;10.35;;;4.50;;
65469;SDS011;52067;50.710;14.492;2024-01-15T05:40:12;6.35;;;3.42;;
65469;SDS011;52067;50.710;14.492;2024-01-15T05:42:38;11.02;;;3.83;;
65469;SDS011;52067;50.710;14.492;2024-01-15T05:45:04;8.82;;;4.35;;
65469;SDS011;52067;50.710;14.492;2024-01-15T05:47:30;10.48;;;4.43;;
65469;SDS011;52067;50.710;14.492;2024-01-15T05:49:56;8.50;;;3.88;;
65469;SDS011;52067;50.710;14.492;2024-01-15T05:52:22;7.22;;;3.75;;
65469;SDS011;52067;50.710;14.492;2024-01-15T05:54:47;10.02;;;4.20;;
65469;SDS011;52067;50.710;14.492;2024-01-15T05:57:13;8.95;;;4.03;;
65469;SDS011;52067;50.710;14.492;2024-01-15T05:59:38;8.93;;;4.07;;
65469;SDS011;52067;50.710;14.492;2024-01-15T06:02:04;10.23;;;4.28;;
65469;SDS011;52067;50.710;14.492;2024-01-15T06:04:29;9.07;;;3.38;;
65469;SDS011;52067;50.710;14.492;2024-01-15T06:06:55;6.40;;;3.28;;
65469;SDS011;52067;50.710;14.492;2024-01-15T06:09:20;8.05;;;3.90;;
65469;SDS011;52067;50.710;14.492;2024-01-15T06:11:45;10.05;;;4.32;;
65469;SDS011;52067;50.710;14.492;2024-01-15T06:14:11;8.02;;;3.60;;
65469;SDS011;52067;50.710;14.492;2024-01-15T06:16:36;8.63;;;3.88;;
65469;SDS011;52067;50.710;14.492;2024-01-15T06:19:02;13.60;;;4.57;;
65469;SDS011;52067;50.710;14.492;2024-01-15T06:21:28;14.05;;;5.57;;
65469;SDS011;52067;50.710;14.492;2024-01-15T06:23:53;12.63;;;6.03;;
65469;SDS011;52067;50.710;14.492;2024-01-15T06:26:21;13.48;;;5.75;;
65469;SDS011;52067;50.710;14.492;2024-01-15T06:28:47;16.85;;;7.13;;
65469;SDS011;52067;50.710;14.492;2024-01-15T06:31:12;14.98;;;5.55;;
65469;SDS011;52067;50.710;14.492;2024-01-15T06:33:38;19.77;;;6.70;;
65469;SDS011;52067;50.710;14.492;2024-01-15T06:36:03;17.50;;;6.75;;
65469;SDS011;52067;50.710;14.492;2024-01-15T06:38:29;15.27;;;5.97;;
65469;SDS011;52067;50.710;14.492;2024-01-15T06:40:54;16.52;;;6.57;;
65469;SDS011;52067;50.710;14.492;2024-01-15T06:43:20;16.20;;;7.00;;
65469;SDS011;52067;50.710;14.492;2024-01-15T06:45:45;13.23;;;5.88;;
65469;SDS011;52067;50.710;14.492;2024-01-15T06:48:11;14.30;;;6.07;;
65469;SDS011;52067;50.710;14.492;2024-01-15T06:50:39;15.30;;;6.32;;
65469;SDS011;52067;50.710;14.492;2024-01-15T06:53:05;17.45;;;7.45;;
65469;SDS011;52067;50.710;14.492;2024-01-15T06:55:30;18.73;;;7.13;;
65469;SDS011;52067;50.710;14.492;2024-01-15T06:57:56;18.30;;;8.05;;
65469;SDS011;52067;50.710;14.492;2024-01-15T07:00:21;17.58;;;7.22;;
65469;SDS011;52067;50.710;14.492;2024-01-15T07:02:46;13.45;;;6.28;;
65469;SDS011;52067;50.710;14.492;2024-01-15T07:05:12;15.88;;;6.20;;
65469;SDS011;52067;50.710;14.492;2024-01-15T07:07:37;17.13;;;6.97;;
65469;SDS011;52067;50.710;14.492;2024-01-15T07:10:03;18.00;;;6.82;;
65469;SDS011;52067;50.710;14.492;2024-01-15T07:12:30;23.67;;;7.10;;
65469;SDS011;52067;50.710;14.492;2024-01-15T07:14:58;17.80;;;7.00;;
65469;SDS011;52067;50.710;14.492;2024-01-15T07:17:24;16.20;;;6.45;;
65469;SDS011;52067;50.710;14.492;2024-01-15T07:19:49;21.95;;;7.07;;
65469;SDS011;52067;50.710;14.492;2024-01-15T07:22:14;15.35;;;6.95;;
65469;SDS011;52067;50.710;14.492;2024-01-15T07:24:42;16.45;;;6.22;;
65469;SDS011;52067;50.710;14.492;2024-01-15T07:27:08;14.85;;;6.45;;
65469;SDS011;52067;50.710;14.492;2024-01-15T07:29:34;16.38;;;6.82;;
65469;SDS011;52067;50.710;14.492;2024-01-15T07:32:02;16.45;;;6.93;;
65469;SDS011;52067;50.710;14.492;2024-01-15T07:34:28;16.75;;;6.75;;
65469;SDS011;52067;50.710;14.492;2024-01-15T07:36:53;17.75;;;5.72;;
65469;SDS011;52067;50.710;14.492;2024-01-15T07:39:19;12.63;;;5.28;;
65469;SDS011;52067;50.710;14.492;2024-01-15T07:41:44;15.07;;;5.40;;
65469;SDS011;52067;50.710;14.492;2024-01-15T07:44:09;13.02;;;6.05;;
65469;SDS011;52067;50.710;14.492;2024-01-15T07:46:35;11.30;;;5.30;;
65469;SDS011;52067;50.710;14.492;2024-01-15T07:49:00;12.88;;;5.45;;
65469;SDS011;52067;50.710;14.492;2024-01-15T07:51:25;11.00;;;5.03;;
65469;SDS011;52067;50.710;14.492;2024-01-15T07:53:54;11.95;;;5.75;;
65469;SDS011;52067;50.710;14.492;2024-01-15T07:56:20;13.52;;;5.15;;
65469;SDS011;52067;50.710;14.492;2024-01-15T07:58:46;11.40;;;4.97;;
65469;SDS011;52067;50.710;14.492;2024-01-15T08:01:12;11.93;;;4.75;;
65469;SDS011;52067;50.710;14.492;2024-01-15T08:03:37;12.02;;;4.75;;
65469;SDS011;52067;50.710;14.492;2024-01-15T08:06:02;11.57;;;4.78;;
65469;SDS011;52067;50.710;14.492;2024-01-15T08:08:28;8.13;;;3.72;;
65469;SDS011;52067;50.710;14.492;2024-01-15T08:10:53;21.05;;;5.20;;
65469;SDS011;52067;50.710;14.492;2024-01-15T08:13:19;10.73;;;4.00;;
65469;SDS011;52067;50.710;14.492;2024-01-15T08:15:45;12.32;;;5.10;;
65469;SDS011;52067;50.710;14.492;2024-01-15T08:18:11;13.32;;;5.15;;
65469;SDS011;52067;50.710;14.492;2024-01-15T08:20:37;15.07;;;6.00;;
65469;SDS011;52067;50.710;14.492;2024-01-15T08:23:02;12.45;;;4.82;;
65469;SDS011;52067;50.710;14.492;2024-01-15T08:25:28;11.25;;;5.00;;
65469;SDS011;52067;50.710;14.492;2024-01-15T08:27:53;15.15;;;5.13;;
65469;SDS011;52067;50.710;14.492;2024-01-15T08:30:19;11.13;;;4.07;;
65469;SDS011;52067;50.710;14.492;2024-01-15T08:32:45;12.50;;;5.15;;
65469;SDS011;52067;50.710;14.492;2024-01-15T08:35:11;11.82;;;4.35;;
65469;SDS011;52067;50.710;14.492;2024-01-15T08:37:36;11.93;;;4.43;;
65469;SDS011;52067;50.710;14.492;2024-01-15T08:40:03;18.17;;;6.03;;
65469;SDS011;52067;50.710;14.492;2024-01-15T08:42:29;12.45;;;4.28;;
65469;SDS011;52067;50.710;14.492;2024-01-15T08:44:54;16.88;;;5.75;;
65469;SDS011;52067;50.710;14.492;2024-01-15T08:47:20;17.90;;;6.78;;
65469;SDS011;52067;50.710;14.492;2024-01-15T08:49:45;18.95;;;6.63;;
65469;SDS011;52067;50.710;14.492;2024-01-15T08:52:11;18.42;;;5.85;;
65469;SDS011;52067;50.710;14.492;2024-01-15T08:54:36;14.98;;;5.45;;
65469;SDS011;52067;50.710;14.492;2024-01-15T08:57:02;16.58;;;5.90;;
65469;SDS011;52067;50.710;14.492;2024-01-15T08:59:27;10.90;;;4.75;;
65469;SDS011;52067;50.710;14.492;2024-01-15T09:01:53;14.93;;;5.00;;
65469;SDS011;52067;50.710;14.492;2024-01-15T09:04:19;16.13;;;5.93;;
65469;SDS011;52067;50.710;14.492;2024-01-15T09:06:47;17.58;;;5.72;;
65469;SDS011;52067;50.710;14.492;2024-01-15T09:09:13;15.13;;;5.80;;
65469;SDS011;52067;50.710;14.492;2024-01-15T09:11:41;12.63;;;5.18;;
65469;SDS011;52067;50.710;14.492;2024-01-15T09:14:06;16.17;;;4.88;;
65469;SDS011;52067;50.710;14.492;2024-01-15T09:16:33;13.75;;;5.40;;
65469;SDS011;52067;50.710;14.492;2024-01-15T09:18:58;14.80;;;4.82;;
65469;SDS011;52067;50.710;14.492;2024-01-15T09:21:23;18.45;;;5.00;;
65469;SDS011;52067;50.710;14.492;2024-01-15T09:23:51;9.50;;;4.53;;
65469;SDS011;52067;50.710;14.492;2024-01-15T09:26:17;13.13;;;5.43;;
65469;SDS011;52067;50.710;14.492;2024-01-15T09:28:43;6.35;;;3.70;;
65469;SDS011;52067;50.710;14.492;2024-01-15T09:31:08;9.15;;;3.58;;
65469;SDS011;52067;50.710;14.492;2024-01-15T09:33:34;10.75;;;4.68;;
65469;SDS011;52067;50.710;14.492;2024-01-15T09:36:02;16.60;;;6.25;;
65469;SDS011;52067;50.710;14.492;2024-01-15T09:38:29;10.48;;;4.43;;
65469;SDS011;52067;50.710;14.492;2024-01-15T09:40:55;12.55;;;5.20;;
65469;SDS011;52067;50.710;14.492;2024-01-15T09:43:20;14.80;;;5.32;;
65469;SDS011;52067;50.710;14.492;2024-01-15T09:45:46;12.15;;;5.13;;
65469;SDS011;52067;50.710;14.492;2024-01-15T09:48:12;14.00;;;5.53;;
65469;SDS011;52067;50.710;14.492;2024-01-15T09:50:38;12.57;;;5.72;;
65469;SDS011;52067;50.710;14.492;2024-01-15T09:53:04;14.40;;;6.32;;
65469;SDS011;52067;50.710;14.492;2024-01-15T09:55:30;11.20;;;4.93;;
65469;SDS011;52067;50.710;14.492;2024-01-15T09:57:57;24.48;;;5.43;;
65469;SDS011;52067;50.710;14.492;2024-01-15T10:00:25;11.63;;;4.80;;
65469;SDS011;52067;50.710;14.492;2024-01-15T10:02:51;11.20;;;4.30;;
65469;SDS011;52067;50.710;14.492;2024-01-15T10:05:17;11.75;;;5.50;;
65469;SDS011;52067;50.710;14.492;2024-01-15T10:07:42;13.65;;;4.45;;
65469;SDS011;52067;50.710;14.492;2024-01-15T10:10:10;11.55;;;4.93;;
65469;SDS011;52067;50.710;14.492;2024-01-15T10:12:36;9.93;;;3.83;;
65469;SDS011;52067;50.710;14.492;2024-01-15T10:15:03;8.25;;;4.10;;
65469;SDS011;52067;50.710;14.492;2024-01-15T10:17:29;13.32;;;4.40;;
65469;SDS011;52067;50.710;14.492;2024-01-15T10:19:56;10.57;;;4.60;;
65469;SDS011;52067;50.710;14.492;2024-01-15T10:22:22;11.35;;;4.15;;
65469;SDS011;52067;50.710;14.492;2024-01-15T10:24:48;10.55;;;4.20;;
65469;SDS011;52067;50.710;14.492;2024-01-15T10:27:13;11.30;;;3.85;;
65469;SDS011;52067;50.710;14.492;2024-01-15T10:29:40;5.80;;;3.13;;
65469;SDS011;52067;50.710;14.492;2024-01-15T10:32:07;10.15;;;3.90;;
65469;SDS011;52067;50.710;14.492;2024-01-15T10:34:39;11.23;;;4.00;;
65469;SDS011;52067;50.710;14.492;2024-01-15T10:37:07;9.73;;;3.78;;
65469;SDS011;52067;50.710;14.492;2024-01-15T10:39:33;8.25;;;3.67;;
65469;SDS011;52067;50.710;14.492;2024-01-15T10:41:59;7.30;;;3.60;;
65469;SDS011;52067;50.710;14.492;2024-01-15T10:44:25;8.57;;;3.60;;
65469;SDS011;52067;50.710;14.492;2024-01-15T10:46:50;10.52;;;3.47;;
65469;SDS011;52067;50.710;14.492;2024-01-15T10:49:16;8.10;;;3.20;;
65469;SDS011;52067;50.710;14.492;2024-01-15T10:51:44;9.75;;;3.55;;
65469;SDS011;52067;50.710;14.492;2024-01-15T10:54:11;8.70;;;3.70;;
65469;SDS011;52067;50.710;14.492;2024-01-15T10:56:38;11.35;;;3.60;;
65469;SDS011;52067;50.710;14.492;2024-01-15T10:59:04;7.82;;;3.58;;
65469;SDS011;52067;50.710;14.492;2024-01-15T11:01:30;8.05;;;3.10;;
65469;SDS011;52067;50.710;14.492;2024-01-15T11:03:56;6.90;;;3.38;;
65469;SDS011;52067;50.710;14.492;2024-01-15T11:06:23;6.55;;;2.70;;
65469;SDS011;52067;50.710;14.492;2024-01-15T11:08:50;8.07;;;3.95;;
65469;SDS011;52067;50.710;14.492;2024-01-15T11:11:17;7.93;;;3.75;;
65469;SDS011;52067;50.710;14.492;2024-01-15T11:13:43;5.07;;;2.83;;
65469;SDS011;52067;50.710;14.492;2024-01-15T11:16:12;9.70;;;2.92;;
65469;SDS011;52067;50.710;14.492;2024-01-15T11:21:27;7.57;;;2.60;;
65469;SDS011;52067;50.710;14.492;2024-01-15T11:23:58;12.13;;;3.45;;
65469;SDS011;52067;50.710;14.492;2024-01-15T11:26:43;8.75;;;3.25;;
65469;SDS011;52067;50.710;14.492;2024-01-15T11:29:10;7.40;;;3.28;;
65469;SDS011;52067;50.710;14.492;2024-01-15T11:34:20;6.65;;;2.88;;
65469;SDS011;52067;50.710;14.492;2024-01-15T11:42:02;7.65;;;3.53;;
65469;SDS011;52067;50.710;14.492;2024-01-15T11:44:28;8.02;;;3.25;;
65469;SDS011;52067;50.710;14.492;2024-01-15T11:47:04;7.88;;;2.90;;
65469;SDS011;52067;50.710;14.492;2024-01-15T11:52:33;7.82;;;2.78;;
65469;SDS011;52067;50.710;14.492;2024-01-15T11:55:19;5.57;;;3.00;;
65469;SDS011;52067;50.710;14.492;2024-01-15T11:57:53;8.02;;;3.17;;
65469;SDS011;52067;50.710;14.492;2024-01-15T12:00:22;7.32;;;3.10;;
65469;SDS011;52067;50.710;14.492;2024-01-15T12:02:48;6.68;;;2.90;;
65469;SDS011;52067;50.710;14.492;2024-01-15T12:05:16;4.60;;;2.42;;
65469;SDS011;52067;50.710;14.492;2024-01-15T12:07:43;3.83;;;2.33;;
65469;SDS011;52067;50.710;14.492;2024-01-15T12:10:14;6.95;;;2.80;;
65469;SDS011;52067;50.710;14.492;2024-01-15T12:12:57;5.18;;;2.38;;
65469;SDS011;52067;50.710;14.492;2024-01-15T12:15:29;5.30;;;2.67;;
65469;SDS011;52067;50.710;14.492;2024-01-15T12:17:55;10.75;;;3.13;;
65469;SDS011;52067;50.710;14.492;2024-01-15T12:20:25;7.53;;;2.80;;
65469;SDS011;52067;50.710;14.492;2024-01-15T12:22:51;6.72;;;2.80;;
65469;SDS011;52067;50.710;14.492;2024-01-15T12:25:17;6.15;;;2.15;;
65469;SDS011;52067;50.710;14.492;2024-01-15T12:27:42;6.32;;;2.70;;
65469;SDS011;52067;50.710;14.492;2024-01-15T12:30:12;5.22;;;2.20;;
65469;SDS011;52067;50.710;14.492;2024-01-15T12:32:39;5.40;;;2.60;;
65469;SDS011;52067;50.710;14.492;2024-01-15T12:35:06;4.97;;;2.42;;
65469;SDS011;52067;50.710;14.492;2024-01-15T12:37:31;5.65;;;2.47;;
65469;SDS011;52067;50.710;14.492;2024-01-15T12:39:58;8.32;;;2.30;;
65469;SDS011;52067;50.710;14.492;2024-01-15T12:42:24;6.95;;;2.70;;
65469;SDS011;52067;50.710;14.492;2024-01-15T12:44:50;3.65;;;2.08;;
65469;SDS011;52067;50.710;14.492;2024-01-15T12:47:15;6.40;;;2.70;;
65469;SDS011;52067;50.710;14.492;2024-01-15T12:49:46;10.52;;;2.55;;
65469;SDS011;52067;50.710;14.492;2024-01-15T12:52:14;4.63;;;2.28;;
65469;SDS011;52067;50.710;14.492;2024-01-15T12:54:39;6.38;;;2.15;;
65469;SDS011;52067;50.710;14.492;2024-01-15T12:57:05;5.22;;;1.92;;
65469;SDS011;52067;50.710;14.492;2024-01-15T12:59:30;5.30;;;1.70;;
65469;SDS011;52067;50.710;14.492;2024-01-15T13:01:55;5.15;;;1.85;;
65469;SDS011;52067;50.710;14.492;2024-01-15T13:04:23;9.45;;;2.45;;
65469;SDS011;52067;50.710;14.492;2024-01-15T13:06:50;3.95;;;2.00;;
65469;SDS011;52067;50.710;14.492;2024-01-15T13:09:16;5.97;;;2.13;;
65469;SDS011;52067;50.710;14.492;2024-01-15T13:11:42;4.63;;;1.88;;
65469;SDS011;52067;50.710;14.492;2024-01-15T13:14:08;2.83;;;1.63;;
65469;SDS011;52067;50.710;14.492;2024-01-15T13:16:34;5.75;;;2.10;;
65469;SDS011;52067;50.710;14.492;2024-01-15T13:18:59;4.45;;;2.38;;
65469;SDS011;52067;50.710;14.492;2024-01-15T13:21:25;4.30;;;1.77;;
65469;SDS011;52067;50.710;14.492;2024-01-15T13:23:50;3.83;;;1.90;;
65469;SDS011;52067;50.710;14.492;2024-01-15T13:26:16;4.68;;;2.20;;
65469;SDS011;52067;50.710;14.492;2024-01-15T13:28:43;7.97;;;1.77;;
65469;SDS011;52067;50.710;14.492;2024-01-15T13:31:08;6.85;;;2.10;;
65469;SDS011;52067;50.710;14.492;2024-01-15T13:33:34;6.00;;;2.65;;
65469;SDS011;52067;50.710;14.492;2024-01-15T13:35:59;5.20;;;2.17;;
65469;SDS011;52067;50.710;14.492;2024-01-15T13:38:25;5.18;;;2.30;;
65469;SDS011;52067;50.710;14.492;2024-01-15T13:40:51;2.67;;;1.50;;
65469;SDS011;52067;50.710;14.492;2024-01-15T13:43:17;4.15;;;1.83;;
65469;SDS011;52067;50.710;14.492;2024-01-15T13:45:44;3.88;;;1.77;;
65469;SDS011;52067;50.710;14.492;2024-01-15T13:48:11;3.67;;;1.98;;
65469;SDS011;52067;50.710;14.492;2024-01-15T13:50:36;5.78;;;2.15;;
65469;SDS011;52067;50.710;14.492;2024-01-15T13:53:02;3.05;;;1.85;;
65469;SDS011;52067;50.710;14.492;2024-01-15T13:55:28;3.00;;;1.85;;
65469;SDS011;52067;50.710;14.492;2024-01-15T13:57:54;5.53;;;1.88;;
65469;SDS011;52067;50.710;14.492;2024-01-15T14:00:20;5.43;;;2.45;;
65469;SDS011;52067;50.710;14.492;2024-01-15T14:02:45;7.30;;;2.28;;
65469;SDS011;52067;50.710;14.492;2024-01-15T14:05:11;5.60;;;2.38;;
65469;SDS011;52067;50.710;14.492;2024-01-15T14:07:40;4.35;;;2.22;;
65469;SDS011;52067;50.710;14.492;2024-01-15T14:10:09;9.70;;;2.67;;
65469;SDS011;52067;50.710;14.492;2024-01-15T14:12:35;4.00;;;1.98;;
65469;SDS011;52067;50.710;14.492;2024-01-15T14:15:01;8.43;;;3.80;;
65469;SDS011;52067;50.710;14.492;2024-01-15T14:17:27;5.10;;;2.00;;
65469;SDS011;52067;50.710;14.492;2024-01-15T14:19:53;7.50;;;3.55;;
65469;SDS011;52067;50.710;14.492;2024-01-15T14:22:18;4.90;;;2.22;;
65469;SDS011;52067;50.710;14.492;2024-01-15T14:24:44;5.50;;;2.60;;
65469;SDS011;52067;50.710;14.492;2024-01-15T14:27:09;3.65;;;2.03;;
65469;SDS011;52067;50.710;14.492;2024-01-15T14:29:35;7.20;;;2.45;;
65469;SDS011;52067;50.710;14.492;2024-01-15T14:32:00;4.30;;;2.15;;
65469;SDS011;52067;50.710;14.492;2024-01-15T14:34:26;5.72;;;2.88;;
65469;SDS011;52067;50.710;14.492;2024-01-15T14:36:52;4.43;;;2.53;;
65469;SDS011;52067;50.710;14.492;2024-01-15T14:39:21;4.03;;;2.15;;